Time;durP1;ratioP1;P1;durP2;ratioP2;P2;SDS_P1;SDS_P2;PMS_P1;PMS_P2;Temp;Humidity;BMP_temperature;BMP_pressure;BME280_temperature;BME280_humidity;BME280_pressure;Samples;Min_cycle;Max_cycle;Signal;HPM_P1;HPM_P2
2022/11/25 00:00:43;;;;;;;;;;;;;;;;;;5067556;28;20038;-76
2022/11/25 00:03:09;;;;;;;;;;;;;;;;;;5050181;28;19916;-76
2022/11/25 00:05:35;;;;;;;;;;;;;;;;;;5066403;28;19966;-76
2022/11/25 00:08:01;;;;;;;;;;;;;;;;;;5064851;28;19964;-76
2022/11/25 00:10:28;;;;;;;;;;;;;;;;;;5055747;28;20478;-76
2022/11/25 00:12:54;;;;;;;;;;;;;;;;;;5046178;28;19986;-75
2022/11/25 00:15:20;;;;;;;;;;;;;;;;;;5059744;28;19951;-76
2022/11/25 00:17:46;;;;;;;;;;;;;;;;;;5062873;28;19990;-75
2022/11/25 00:20:12;;;;;;;;;;;;;;;;;;5070037;28;19964;-75
2022/11/25 00:22:39;;;;;;;;;;;;;;;;;;5052511;28;19956;-76
2022/11/25 00:25:05;;;;;;;;;;;;;;;;;;5067939;28;20035;-77
2022/11/25 00:27:31;;;;;;;;;;;;;;;;;;5074232;28;19970;-76
2022/11/25 00:29:57;;;;;;;;;;;;;;;;;;5069435;28;20558;-76
2022/11/25 00:32:23;;;;;;;;;;;;;;;;;;5055605;28;19958;-76
2022/11/25 00:34:49;;;;;;;;;;;;;;;;;;5070208;28;19966;-76
2022/11/25 00:37:16;;;;;;;;;;;;;;;;;;5051588;28;19947;-75
2022/11/25 00:39:42;;;;;;;;;;;;;;;;;;5074326;28;19960;-76
2022/11/25 00:44:53;;;;;;;;;;;;;;;;;;5052718;28;19964;-76
2022/11/25 00:47:19;;;;;;;;;;;;;;;;;;5062156;28;19944;-76
2022/11/25 00:49:45;;;;;;;;;;;;;;;;;;5073610;28;19982;-76
2022/11/25 00:52:11;;;;;;;;;;;;;;;;;;5063462;28;20530;-76
2022/11/25 00:54:38;;;;;;;;;;;;;;;;;;5048950;28;19948;-76
2022/11/25 00:57:04;;;;;;;;;;;;;;;;;;5059472;28;19968;-76
2022/11/25 00:59:30;;;;;;;;;;;;;;;;;;5069104;28;20672;-75
2022/11/25 01:01:56;;;;;;;;;;;;;;;;;;5065790;28;19928;-76
2022/11/25 01:04:25;;;;;;;;;;;;;;;;;;5046366;28;20330;-76
2022/11/25 01:06:53;;;;;;;;;;;;;;;;;;5054086;28;19994;-75
2022/11/25 01:09:19;;;;;;;;;;;;;;;;;;5060146;28;19955;-74
2022/11/25 01:11:45;;;;;;;;;;;;;;;;;;5053602;28;19952;-76
2022/11/25 01:14:11;;;;;;;;;;;;;;;;;;5062184;28;19956;-75
2022/11/25 01:16:37;;;;;;;;;;;;;;;;;;5062283;28;19960;-75
2022/11/25 01:19:03;;;;;;;;;;;;;;;;;;5067145;28;19959;-76
2022/11/25 01:21:30;;;;;;;;;;;;;;;;;;5065659;28;19954;-76
2022/11/25 01:23:56;;;;;;;;;;;;;;;;;;5068001;28;19913;-75
2022/11/25 01:26:22;;;;;;;;;;;;;;;;;;5039539;28;19966;-76
2022/11/25 01:28:48;;;;;;;;;;;;;;;;;;5050730;28;20001;-76
2022/11/25 01:31:15;;;;;;;;;;;;;;;;;;5030068;28;19956;-75
2022/11/25 01:33:41;;;;;;;;;;;;;;;;;;5066764;28;20183;-76
2022/11/25 01:36:07;;;;;;;;;;;;;;;;;;5066731;28;20402;-76
2022/11/25 01:38:33;;;;;;;;;;;;;;;;;;5080435;28;19948;-76
2022/11/25 01:40:59;;;;;;;;;;;;;;;;;;5047421;28;19968;-75
2022/11/25 01:43:26;;;;;;;;;;;;;;;;;;5065082;28;19956;-76
2022/11/25 01:45:52;;;;;;;;;;;;;;;;;;5065894;28;19974;-77
2022/11/25 01:48:18;;;;;;;;;;;;;;;;;;5072337;28;20363;-76
2022/11/25 01:50:44;;;;;;;;;;;;;;;;;;5073361;28;19971;-76
2022/11/25 01:53:11;;;;;;;;;;;;;;;;;;5066862;28;19955;-76
2022/11/25 01:55:37;;;;;;;;;;;;;;;;;;5065857;28;19959;-77
2022/11/25 01:58:03;;;;;;;;;;;;;;;;;;5048959;28;19955;-77
2022/11/25 02:00:30;;;;;;;;;;;;;;;;;;5057992;28;20404;-77
2022/11/25 02:02:56;;;;;;;;;;;;;;;;;;5065092;28;19913;-77
2022/11/25 02:05:23;;;;;;;;;;;;;;;;;;5050091;28;19975;-77
2022/11/25 02:07:49;;;;;;;;;;;;;;;;;;5043372;28;19948;-77
2022/11/25 02:10:15;;;;;;;;;;;;;;;;;;5069639;28;20532;-77
2022/11/25 02:12:42;;;;;;;;;;;;;;;;;;5067861;28;19962;-77
2022/11/25 02:15:08;;;;;;;;;;;;;;;;;;5053650;28;19974;-77
2022/11/25 02:17:35;;;;;;;;;;;;;;;;;;5045144;28;19964;-76
2022/11/25 02:20:02;;;;;;;;;;;;;;;;;;5080660;28;20030;-77
2022/11/25 02:22:28;;;;;;;;;;;;;;;;;;5075283;28;19985;-77
2022/11/25 02:24:55;;;;;;;;;;;;;;;;;;5054092;28;19967;-76
2022/11/25 02:27:21;;;;;;;;;;;;;;;;;;5065608;28;21029;-76
2022/11/25 02:29:48;;;;;;;;;;;;;;;;;;5044180;28;19951;-76
2022/11/25 02:32:14;;;;;;;;;;;;;;;;;;5058502;28;19920;-76
2022/11/25 02:34:40;;;;;;;;;;;;;;;;;;5064697;28;19954;-76
2022/11/25 02:37:06;;;;;;;;;;;;;;;;;;5064261;28;19951;-76
2022/11/25 02:39:32;;;;;;;;;;;;;;;;;;5064169;28;20418;-76
2022/11/25 02:41:59;;;;;;;;;;;;;;;;;;5064654;28;19956;-76
2022/11/25 02:44:25;;;;;;;;;;;;;;;;;;5043500;28;20379;-77
2022/11/25 02:46:51;;;;;;;;;;;;;;;;;;5081348;28;19963;-77
2022/11/25 02:49:17;;;;;;;;;;;;;;;;;;5057064;28;20311;-77
2022/11/25 02:51:43;;;;;;;;;;;;;;;;;;5048196;28;19963;-77
2022/11/25 02:54:10;;;;;;;;;;;;;;;;;;5074646;28;19991;-76
2022/11/25 02:56:36;;;;;;;;;;;;;;;;;;5082435;28;19912;-76
2022/11/25 02:59:02;;;;;;;;;;;;;;;;;;5048286;28;20440;-77
2022/11/25 03:01:29;;;;;;;;;;;;;;;;;;5060058;28;19978;-77
2022/11/25 03:03:56;;;;;;;;;;;;;;;;;;5068018;28;19969;-77
2022/11/25 03:06:22;;;;;;;;;;;;;;;;;;5068139;28;19916;-77
2022/11/25 03:08:48;;;;;;;;;;;;;;;;;;5050815;28;20363;-76
2022/11/25 03:11:14;;;;;;;;;;;;;;;;;;5073332;28;19912;-76
2022/11/25 03:13:41;;;;;;;;;;;;;;;;;;5057330;28;19947;-76
2022/11/25 03:16:07;;;;;;;;;;;;;;;;;;5067394;28;19951;-77
2022/11/25 03:18:33;;;;;;;;;;;;;;;;;;5065620;28;19963;-76
2022/11/25 03:20:59;;;;;;;;;;;;;;;;;;5057828;28;19959;-76
2022/11/25 03:23:26;;;;;;;;;;;;;;;;;;5058445;28;19909;-77
2022/11/25 03:25:52;;;;;;;;;;;;;;;;;;5049548;28;19959;-76
2022/11/25 03:28:18;;;;;;;;;;;;;;;;;;5053313;28;19955;-76
2022/11/25 03:30:44;;;;;;;;;;;;;;;;;;5055586;28;19920;-76
2022/11/25 03:33:10;;;;;;;;;;;;;;;;;;5070460;28;19955;-76
2022/11/25 03:35:37;;;;;;;;;;;;;;;;;;5059726;28;20367;-76
2022/11/25 03:38:03;;;;;;;;;;;;;;;;;;5066979;28;19972;-76
2022/11/25 03:40:29;;;;;;;;;;;;;;;;;;5064880;28;19920;-76
2022/11/25 03:42:55;;;;;;;;;;;;;;;;;;5070423;28;19924;-76
2022/11/25 03:45:21;;;;;;;;;;;;;;;;;;5070967;28;19952;-77
2022/11/25 03:47:48;;;;;;;;;;;;;;;;;;5074208;28;19959;-75
2022/11/25 03:50:14;;;;;;;;;;;;;;;;;;5079626;28;19950;-76
2022/11/25 03:52:40;;;;;;;;;;;;;;;;;;5063607;28;19959;-76
2022/11/25 03:55:06;;;;;;;;;;;;;;;;;;5050852;28;19912;-75
2022/11/25 03:57:33;;;;;;;;;;;;;;;;;;5068013;28;19968;-75
2022/11/25 03:59:59;;;;;;;;;;;;;;;;;;5063208;28;19909;-75
2022/11/25 04:02:25;;;;;;;;;;;;;;;;;;5066181;28;19928;-76
2022/11/25 04:04:51;;;;;;;;;;;;;;;;;;5068879;28;20010;-76
2022/11/25 04:07:17;;;;;;;;;;;;;;;;;;5041587;28;19987;-76
2022/11/25 04:09:44;;;;;;;;;;;;;;;;;;5046169;28;19963;-76
2022/11/25 04:14:55;;;;;;;;;;;;;;;;;;5064582;28;19922;-76
2022/11/25 04:17:21;;;;;;;;;;;;;;;;;;5070490;28;19924;-76
2022/11/25 04:19:47;;;;;;;;;;;;;;;;;;5065181;28;20035;-77
2022/11/25 04:22:13;;;;;;;;;;;;;;;;;;5064674;28;20515;-77
2022/11/25 04:24:40;;;;;;;;;;;;;;;;;;5064699;28;19970;-76
2022/11/25 04:27:06;;;;;;;;;;;;;;;;;;5070002;28;19967;-77
2022/11/25 04:29:32;;;;;;;;;;;;;;;;;;5069032;28;20694;-76
2022/11/25 04:31:58;;;;;;;;;;;;;;;;;;5066597;28;19963;-77
2022/11/25 04:34:24;;;;;;;;;;;;;;;;;;5071371;28;19967;-75
2022/11/25 04:36:50;;;;;;;;;;;;;;;;;;5050926;28;19986;-75
2022/11/25 04:39:17;;;;;;;;;;;;;;;;;;5043848;28;19954;-75
2022/11/25 04:41:43;;;;;;;;;;;;;;;;;;5058221;28;20667;-74
2022/11/25 04:44:09;;;;;;;;;;;;;;;;;;5056083;28;19948;-74
2022/11/25 04:46:36;;;;;;;;;;;;;;;;;;5042415;28;20323;-75
2022/11/25 04:49:02;;;;;;;;;;;;;;;;;;5031637;28;19916;-75
2022/11/25 04:51:28;;;;;;;;;;;;;;;;;;5052247;28;20490;-75
2022/11/25 04:53:54;;;;;;;;;;;;;;;;;;5044297;28;19913;-75
2022/11/25 04:56:21;;;;;;;;;;;;;;;;;;5058729;28;19944;-76
2022/11/25 05:01:32;;;;;;;;;;;;;;;;;;5065481;28;19924;-75
2022/11/25 05:03:58;;;;;;;;;;;;;;;;;;5083030;28;19955;-77
2022/11/25 05:06:25;;;;;;;;;;;;;;;;;;5062312;28;19990;-76
2022/11/25 05:08:51;;;;;;;;;;;;;;;;;;5050109;28;19956;-75
2022/11/25 05:11:17;;;;;;;;;;;;;;;;;;5058044;28;20416;-77
2022/11/25 05:13:43;;;;;;;;;;;;;;;;;;5047134;28;19940;-77
2022/11/25 05:16:09;;;;;;;;;;;;;;;;;;5066023;28;19956;-76
2022/11/25 05:18:36;;;;;;;;;;;;;;;;;;5057086;28;20121;-77
2022/11/25 05:21:02;;;;;;;;;;;;;;;;;;5075331;28;19963;-75
2022/11/25 05:23:28;;;;;;;;;;;;;;;;;;5058421;28;19948;-75
2022/11/25 05:25:54;;;;;;;;;;;;;;;;;;5048909;28;19955;-75
2022/11/25 05:28:20;;;;;;;;;;;;;;;;;;5062241;28;19955;-76
2022/11/25 05:30:47;;;;;;;;;;;;;;;;;;5078886;28;19916;-76
2022/11/25 05:33:13;;;;;;;;;;;;;;;;;;5076845;28;19952;-75
2022/11/25 05:35:39;;;;;;;;;;;;;;;;;;5063870;28;19978;-77
2022/11/25 05:38:05;;;;;;;;;;;;;;;;;;5058116;28;19961;-75
2022/11/25 05:40:31;;;;;;;;;;;;;;;;;;5042789;28;19959;-76
2022/11/25 05:42:57;;;;;;;;;;;;;;;;;;5063191;28;19946;-76
2022/11/25 05:45:24;;;;;;;;;;;;;;;;;;5060457;28;19948;-76
2022/11/25 05:47:50;;;;;;;;;;;;;;;;;;5056820;28;19936;-75
2022/11/25 05:50:16;;;;;;;;;;;;;;;;;;5061266;28;20000;-75
2022/11/25 05:52:42;;;;;;;;;;;;;;;;;;5057646;28;20674;-76
2022/11/25 05:55:08;;;;;;;;;;;;;;;;;;5048682;28;19958;-76
2022/11/25 05:57:34;;;;;;;;;;;;;;;;;;5063786;28;20269;-77
2022/11/25 06:00:01;;;;;;;;;;;;;;;;;;5057325;28;19963;-77
2022/11/25 06:02:27;;;;;;;;;;;;;;;;;;5067725;28;19966;-77
2022/11/25 06:04:53;;;;;;;;;;;;;;;;;;5030033;28;19917;-77
2022/11/25 06:07:19;;;;;;;;;;;;;;;;;;5079690;28;19954;-77
2022/11/25 06:09:45;;;;;;;;;;;;;;;;;;5058643;28;20330;-78
2022/11/25 06:12:12;;;;;;;;;;;;;;;;;;5040150;28;19952;-77
2022/11/25 06:14:38;;;;;;;;;;;;;;;;;;5061012;28;19959;-77
2022/11/25 06:17:04;;;;;;;;;;;;;;;;;;5067672;28;19975;-77
2022/11/25 06:19:30;;;;;;;;;;;;;;;;;;5064625;28;19960;-77
2022/11/25 06:21:56;;;;;;;;;;;;;;;;;;5057559;28;20248;-77
2022/11/25 06:24:22;;;;;;;;;;;;;;;;;;5065402;28;19956;-77
2022/11/25 06:26:49;;;;;;;;;;;;;;;;;;5054400;28;19956;-76
2022/11/25 06:29:15;;;;;;;;;;;;;;;;;;5075053;28;20013;-79
2022/11/25 06:31:41;;;;;;;;;;;;;;;;;;5060226;28;19951;-78
2022/11/25 06:34:08;;;;;;;;;;;;;;;;;;5066221;28;19974;-78
2022/11/25 06:36:34;;;;;;;;;;;;;;;;;;5042846;28;19920;-78
2022/11/25 06:39:00;;;;;;;;;;;;;;;;;;5061801;28;19959;-78
2022/11/25 06:41:26;;;;;;;;;;;;;;;;;;5062730;28;19920;-78
2022/11/25 06:43:53;;;;;;;;;;;;;;;;;;5031664;28;20368;-78
2022/11/25 06:46:19;;;;;;;;;;;;;;;;;;5047125;28;19959;-78
2022/11/25 06:48:45;;;;;;;;;;;;;;;;;;5049444;28;19944;-78
2022/11/25 06:51:11;;;;;;;;;;;;;;;;;;5045324;28;19912;-78
2022/11/25 06:53:37;;;;;;;;;;;;;;;;;;5072694;28;19913;-77
2022/11/25 06:56:04;;;;;;;;;;;;;;;;;;5037883;28;19978;-78
2022/11/25 06:58:30;;;;;;;;;;;;;;;;;;5062070;28;19955;-77
2022/11/25 07:00:56;;;;;;;;;;;;;;;;;;5035907;28;19970;-77
2022/11/25 07:03:22;;;;;;;;;;;;;;;;;;5056057;28;19966;-77
2022/11/25 07:05:48;;;;;;;;;;;;;;;;;;5048344;28;19912;-77
2022/11/25 07:08:15;;;;;;;;;;;;;;;;;;5059803;28;20296;-77
2022/11/25 07:10:41;;;;;;;;;;;;;;;;;;5060900;28;19959;-78
2022/11/25 07:13:07;;;;;;;;;;;;;;;;;;5050771;28;20018;-77
2022/11/25 07:15:33;;;;;;;;;;;;;;;;;;5053054;28;19959;-77
2022/11/25 07:18:02;;;;;;;;;;;;;;;;;;5032993;28;19967;-77
2022/11/25 07:20:29;;;;;;;;;;;;;;;;;;5033004;28;20372;-76
2022/11/25 07:22:57;;;;;;;;;;;;;;;;;;5056001;28;19964;-77
2022/11/25 07:25:23;;;;;;;;;;;;;;;;;;5060213;28;19955;-78
2022/11/25 07:27:50;;;;;;;;;;;;;;;;;;5076599;28;20387;-77
2022/11/25 07:30:16;;;;;;;;;;;;;;;;;;5071460;28;19978;-78
2022/11/25 07:32:42;;;;;;;;;;;;;;;;;;5066802;28;19916;-76
2022/11/25 07:35:09;;;;;;;;;;;;;;;;;;5040730;28;19943;-76
2022/11/25 07:37:35;;;;;;;;;;;;;;;;;;5075957;28;19947;-76
2022/11/25 07:40:01;;;;;;;;;;;;;;;;;;5058102;28;19964;-77
2022/11/25 07:42:27;;;;;;;;;;;;;;;;;;5062003;28;19948;-77
2022/11/25 07:44:53;;;;;;;;;;;;;;;;;;5053198;28;19955;-76
2022/11/25 07:47:20;;;;;;;;;;;;;;;;;;5061072;28;19948;-77
2022/11/25 07:49:46;;;;;;;;;;;;;;;;;;5050093;28;20340;-77
2022/11/25 07:52:12;;;;;;;;;;;;;;;;;;5056163;28;19967;-77
2022/11/25 07:54:38;;;;;;;;;;;;;;;;;;5058253;28;19952;-77
2022/11/25 07:57:04;;;;;;;;;;;;;;;;;;5047189;28;19944;-77
2022/11/25 07:59:30;;;;;;;;;;;;;;;;;;5035230;28;20044;-77
2022/11/25 08:01:57;;;;;;;;;;;;;;;;;;5037716;28;19974;-77
2022/11/25 08:04:23;;;;;;;;;;;;;;;;;;5066793;28;19979;-77
2022/11/25 08:06:49;;;;;;;;;;;;;;;;;;5048607;28;19959;-77
2022/11/25 08:09:18;;;;;;;;;;;;;;;;;;5057524;28;19915;-77
2022/11/25 08:11:44;;;;;;;;;;;;;;;;;;5055793;28;19948;-77
2022/11/25 08:14:10;;;;;;;;;;;;;;;;;;5047873;28;19913;-77
2022/11/25 08:16:36;;;;;;;;;;;;;;;;;;5054273;28;19960;-76
2022/11/25 08:19:02;;;;;;;;;;;;;;;;;;5065206;28;19951;-77
2022/11/25 08:21:28;;;;;;;;;;;;;;;;;;5075087;28;19968;-77
2022/11/25 08:23:55;;;;;;;;;;;;;;;;;;5058534;28;19952;-77
2022/11/25 08:26:21;;;;;;;;;;;;;;;;;;5060860;28;19952;-77
2022/11/25 08:28:47;;;;;;;;;;;;;;;;;;5063633;28;20057;-76
2022/11/25 08:31:13;;;;;;;;;;;;;;;;;;5062992;28;19955;-76
2022/11/25 08:33:39;;;;;;;;;;;;;;;;;;5054101;28;19912;-76
2022/11/25 08:36:06;;;;;;;;;;;;;;;;;;5054004;28;20378;-77
2022/11/25 08:38:32;;;;;;;;;;;;;;;;;;5057154;28;20415;-77
2022/11/25 08:40:58;;;;;;;;;;;;;;;;;;5044201;28;20073;-77
2022/11/25 08:43:24;;;;;;;;;;;;;;;;;;5048572;28;20001;-78
2022/11/25 08:45:50;;;;;;;;;;;;;;;;;;5058041;28;20001;-77
2022/11/25 08:48:17;;;;;;;;;;;;;;;;;;5050337;28;19944;-77
2022/11/25 08:50:43;;;;;;;;;;;;;;;;;;5067844;28;19959;-76
2022/11/25 08:53:09;;;;;;;;;;;;;;;;;;5034946;28;19944;-77
2022/11/25 08:55:37;;;;;;;;;;;;;;;;;;5066539;28;19959;-77
2022/11/25 08:58:03;;;;;;;;;;;;;;;;;;5061815;28;19917;-77
2022/11/25 09:00:30;;;;;;;;;;;;;;;;;;5066245;28;19952;-77
2022/11/25 09:02:56;;;;;;;;;;;;;;;;;;5069749;28;20367;-77
2022/11/25 09:05:22;;;;;;;;;;;;;;;;;;5058276;28;19998;-77
2022/11/25 09:07:48;;;;;;;;;;;;;;;;;;5055238;28;19965;-77
2022/11/25 09:10:14;;;;;;;;;;;;;;;;;;5053455;28;19956;-78
2022/11/25 09:12:41;;;;;;;;;;;;;;;;;;5065012;28;19974;-78
2022/11/25 09:15:07;;;;;;;;;;;;;;;;;;5059361;28;19966;-77
2022/11/25 09:17:36;;;;;;;;;;;;;;;;;;5065793;28;20371;-77
2022/11/25 09:20:04;;;;;;;;;;;;;;;;;;5052662;28;19952;-77
2022/11/25 09:22:30;;;;;;;;;;;;;;;;;;5055485;28;20414;-77
2022/11/25 09:24:56;;;;;;;;;;;;;;;;;;5044585;28;19948;-77
2022/11/25 09:27:22;;;;;;;;;;;;;;;;;;5061985;28;19944;-78
2022/11/25 09:29:48;;;;;;;;;;;;;;;;;;5062416;28;19952;-78
2022/11/25 09:32:15;;;;;;;;;;;;;;;;;;5050027;28;19940;-78
2022/11/25 09:34:41;;;;;;;;;;;;;;;;;;5044075;28;19912;-78
2022/11/25 09:37:07;;;;;;;;;;;;;;;;;;5052279;28;19948;-78
2022/11/25 09:39:34;;;;;;;;;;;;;;;;;;5066594;28;20353;-78
2022/11/25 09:47:29;;;;;;;;;;;;;;;;;;5063351;28;19951;-78
2022/11/25 09:49:56;;;;;;;;;;;;;;;;;;5057591;28;19952;-78
2022/11/25 09:52:22;;;;;;;;;;;;;;;;;;5058362;28;20585;-78
2022/11/25 09:54:48;;;;;;;;;;;;;;;;;;5080578;28;19944;-78
2022/11/25 09:57:14;;;;;;;;;;;;;;;;;;5064120;28;20704;-78
2022/11/25 09:59:40;;;;;;;;;;;;;;;;;;5074639;28;20077;-78
2022/11/25 10:02:07;;;;;;;;;;;;;;;;;;5060642;28;19952;-78
2022/11/25 10:04:33;;;;;;;;;;;;;;;;;;5064261;28;19963;-78
2022/11/25 10:07:00;;;;;;;;;;;;;;;;;;5058018;28;19963;-78
2022/11/25 10:09:26;;;;;;;;;;;;;;;;;;5064117;28;19974;-77
2022/11/25 10:11:53;;;;;;;;;;;;;;;;;;5064301;28;19912;-78
2022/11/25 10:14:19;;;;;;;;;;;;;;;;;;5057154;28;19917;-78
2022/11/25 10:16:45;;;;;;;;;;;;;;;;;;5058458;28;20426;-78
2022/11/25 10:19:12;;;;;;;;;;;;;;;;;;5070326;28;19952;-78
2022/11/25 10:21:38;;;;;;;;;;;;;;;;;;5064236;28;19964;-78
2022/11/25 10:24:04;;;;;;;;;;;;;;;;;;5043991;28;19958;-78
2022/11/25 10:26:30;;;;;;;;;;;;;;;;;;5045208;28;20352;-78
2022/11/25 10:28:56;;;;;;;;;;;;;;;;;;5062107;28;20331;-78
2022/11/25 10:31:23;;;;;;;;;;;;;;;;;;5056971;28;19963;-77
2022/11/25 10:33:49;;;;;;;;;;;;;;;;;;5057328;28;19952;-78
2022/11/25 10:36:15;;;;;;;;;;;;;;;;;;5029821;28;19999;-79
2022/11/25 10:38:41;;;;;;;;;;;;;;;;;;5076645;28;20761;-78
2022/11/25 10:41:07;;;;;;;;;;;;;;;;;;5046513;28;19951;-77
2022/11/25 10:43:34;;;;;;;;;;;;;;;;;;5066090;28;19962;-78
2022/11/25 10:46:00;;;;;;;;;;;;;;;;;;5044742;28;19944;-78
2022/11/25 10:48:26;;;;;;;;;;;;;;;;;;5051050;28;19959;-78
2022/11/25 10:50:52;;;;;;;;;;;;;;;;;;5046828;28;19954;-78
2022/11/25 10:53:18;;;;;;;;;;;;;;;;;;5054659;28;19948;-78
2022/11/25 10:55:44;;;;;;;;;;;;;;;;;;5056556;28;21233;-77
2022/11/25 10:58:11;;;;;;;;;;;;;;;;;;5066729;28;19955;-77
2022/11/25 11:00:37;;;;;;;;;;;;;;;;;;5057166;28;19952;-76
2022/11/25 11:03:03;;;;;;;;;;;;;;;;;;5060222;28;19970;-77
2022/11/25 11:05:30;;;;;;;;;;;;;;;;;;5069316;28;19912;-76
2022/11/25 11:07:56;;;;;;;;;;;;;;;;;;5058516;28;19960;-77
2022/11/25 11:10:22;;;;;;;;;;;;;;;;;;5054479;28;20438;-77
2022/11/25 11:12:48;;;;;;;;;;;;;;;;;;5052572;28;19960;-77
2022/11/25 11:15:14;;;;;;;;;;;;;;;;;;5051989;28;19951;-77
2022/11/25 11:17:41;;;;;;;;;;;;;;;;;;5055882;28;20391;-76
2022/11/25 11:20:09;;;;;;;;;;;;;;;;;;5060246;28;20380;-76
2022/11/25 11:22:35;;;;;;;;;;;;;;;;;;5059416;28;19967;-76
2022/11/25 11:25:01;;;;;;;;;;;;;;;;;;5060385;28;19949;-77
2022/11/25 11:27:27;;;;;;;;;;;;;;;;;;5042556;28;19963;-76
2022/11/25 11:29:53;;;;;;;;;;;;;;;;;;5061170;28;19952;-77
2022/11/25 11:32:20;;;;;;;;;;;;;;;;;;5055784;28;19948;-76
2022/11/25 11:34:46;;;;;;;;;;;;;;;;;;5059993;28;19916;-75
2022/11/25 11:37:13;;;;;;;;;;;;;;;;;;5061310;28;19948;-76
2022/11/25 11:39:39;;;;;;;;;;;;;;;;;;5062983;28;19963;-76
2022/11/25 11:42:05;;;;;;;;;;;;;;;;;;5058332;28;19952;-76
2022/11/25 11:44:31;;;;;;;;;;;;;;;;;;5049667;28;20364;-76
2022/11/25 11:46:57;;;;;;;;;;;;;;;;;;5054829;28;19948;-76
2022/11/25 11:49:24;;;;;;;;;;;;;;;;;;5051747;28;20175;-76
2022/11/25 11:51:50;;;;;;;;;;;;;;;;;;5059258;28;20337;-76
2022/11/25 11:54:16;;;;;;;;;;;;;;;;;;5058009;28;19963;-77
2022/11/25 11:56:42;;;;;;;;;;;;;;;;;;5053194;28;19944;-76
2022/11/25 11:59:08;;;;;;;;;;;;;;;;;;5052887;28;19955;-74
2022/11/25 12:01:35;;;;;;;;;;;;;;;;;;5053488;28;20451;-75
2022/11/25 12:04:01;;;;;;;;;;;;;;;;;;5060048;28;20476;-75
2022/11/25 12:06:27;;;;;;;;;;;;;;;;;;5062923;28;19959;-75
2022/11/25 12:08:55;;;;;;;;;;;;;;;;;;5063665;28;20290;-74
2022/11/25 12:11:21;;;;;;;;;;;;;;;;;;5074748;28;19947;-75
2022/11/25 12:13:47;;;;;;;;;;;;;;;;;;5058749;28;19908;-74
2022/11/25 12:16:13;;;;;;;;;;;;;;;;;;5058942;28;20000;-75
2022/11/25 12:18:40;;;;;;;;;;;;;;;;;;5060818;28;19971;-74
2022/11/25 12:21:06;;;;;;;;;;;;;;;;;;5061423;28;19943;-75
2022/11/25 12:23:34;;;;;;;;;;;;;;;;;;5050761;28;20399;-74
2022/11/25 12:26:01;;;;;;;;;;;;;;;;;;5065716;28;19960;-75
2022/11/25 12:28:27;;;;;;;;;;;;;;;;;;5060317;28;19952;-75
2022/11/25 12:30:53;;;;;;;;;;;;;;;;;;5067178;28;19951;-74
2022/11/25 12:33:20;;;;;;;;;;;;;;;;;;5058726;28;19951;-75
2022/11/25 12:35:46;;;;;;;;;;;;;;;;;;5062513;28;19955;-75
2022/11/25 12:38:12;;;;;;;;;;;;;;;;;;5062596;28;19944;-75
2022/11/25 12:40:38;;;;;;;;;;;;;;;;;;5059790;28;19913;-76
2022/11/25 12:43:04;;;;;;;;;;;;;;;;;;5060995;28;20403;-76
2022/11/25 12:45:31;;;;;;;;;;;;;;;;;;5072268;28;19951;-75
2022/11/25 12:47:57;;;;;;;;;;;;;;;;;;5059258;28;20462;-76
2022/11/25 12:50:25;;;;;;;;;;;;;;;;;;5057011;28;19948;-76
2022/11/25 12:52:51;;;;;;;;;;;;;;;;;;5059433;28;19924;-76
2022/11/25 12:55:18;;;;;;;;;;;;;;;;;;5063471;28;19959;-75
2022/11/25 12:57:44;;;;;;;;;;;;;;;;;;5066144;28;19932;-76
2022/11/25 13:00:10;;;;;;;;;;;;;;;;;;5061929;28;19974;-76
2022/11/25 13:02:37;;;;;;;;;;;;;;;;;;5054632;28;19975;-76
2022/11/25 13:05:03;;;;;;;;;;;;;;;;;;5053297;28;20020;-76
2022/11/25 13:07:29;;;;;;;;;;;;;;;;;;5057163;28;19956;-75
2022/11/25 13:09:55;;;;;;;;;;;;;;;;;;5081271;28;19916;-74
2022/11/25 13:12:21;;;;;;;;;;;;;;;;;;5066627;28;20368;-74
2022/11/25 13:14:48;;;;;;;;;;;;;;;;;;5056733;28;19956;-75
2022/11/25 13:17:14;;;;;;;;;;;;;;;;;;5056378;28;20149;-75
2022/11/25 13:19:40;;;;;;;;;;;;;;;;;;5051149;28;20335;-75
2022/11/25 13:22:06;;;;;;;;;;;;;;;;;;5056664;28;19960;-74
2022/11/25 13:24:32;;;;;;;;;;;;;;;;;;5059539;28;20316;-75
2022/11/25 13:27:00;;;;;;;;;;;;;;;;;;5060320;28;20509;-75
2022/11/25 13:29:26;;;;;;;;;;;;;;;;;;5064219;28;19951;-76
2022/11/25 13:31:53;;;;;;;;;;;;;;;;;;5057809;28;19960;-75
2022/11/25 13:34:19;;;;;;;;;;;;;;;;;;5076899;28;20544;-74
2022/11/25 13:36:45;;;;;;;;;;;;;;;;;;5048551;28;19927;-74
2022/11/25 13:39:11;;;;;;;;;;;;;;;;;;5065582;28;19969;-75
2022/11/25 13:41:37;;;;;;;;;;;;;;;;;;5036376;28;20343;-75
2022/11/25 13:44:04;;;;;;;;;;;;;;;;;;5062018;28;19959;-75
2022/11/25 13:46:30;;;;;;;;;;;;;;;;;;5063426;28;19955;-75
2022/11/25 13:48:56;;;;;;;;;;;;;;;;;;5061607;28;19952;-74
2022/11/25 13:51:22;;;;;;;;;;;;;;;;;;5031262;28;19951;-74
2022/11/25 13:53:48;;;;;;;;;;;;;;;;;;5061802;28;19975;-74
2022/11/25 13:56:15;;;;;;;;;;;;;;;;;;5058806;28;19920;-74
2022/11/25 13:58:41;;;;;;;;;;;;;;;;;;5044434;28;19951;-74
2022/11/25 14:01:07;;;;;;;;;;;;;;;;;;5040773;28;19944;-74
2022/11/25 14:03:33;;;;;;;;;;;;;;;;;;5060477;28;19960;-73
2022/11/25 14:06:00;;;;;;;;;;;;;;;;;;5060593;28;19974;-74
2022/11/25 14:08:26;;;;;;;;;;;;;;;;;;5057343;28;20364;-75
2022/11/25 14:10:52;;;;;;;;;;;;;;;;;;5069135;28;19952;-75
2022/11/25 14:13:18;;;;;;;;;;;;;;;;;;5052929;28;19913;-75
2022/11/25 14:15:44;;;;;;;;;;;;;;;;;;5080332;28;20272;-75
2022/11/25 14:18:11;;;;;;;;;;;;;;;;;;5075034;28;19956;-75
2022/11/25 14:20:37;;;;;;;;;;;;;;;;;;5060821;28;19964;-75
2022/11/25 14:23:03;;;;;;;;;;;;;;;;;;5053570;28;19971;-74
2022/11/25 14:25:29;;;;;;;;;;;;;;;;;;5065190;28;20336;-74
2022/11/25 14:27:56;;;;;;;;;;;;;;;;;;5058578;28;19967;-75
2022/11/25 14:30:22;;;;;;;;;;;;;;;;;;5070027;28;19956;-74
2022/11/25 14:32:48;;;;;;;;;;;;;;;;;;5060200;28;20455;-75
2022/11/25 14:35:14;;;;;;;;;;;;;;;;;;5074110;28;20276;-76
2022/11/25 14:37:41;;;;;;;;;;;;;;;;;;5065179;28;19948;-76
2022/11/25 14:40:07;;;;;;;;;;;;;;;;;;5060978;28;19964;-77
2022/11/25 14:42:33;;;;;;;;;;;;;;;;;;5067519;28;19959;-77
2022/11/25 14:44:59;;;;;;;;;;;;;;;;;;5042706;28;19959;-76
2022/11/25 14:47:25;;;;;;;;;;;;;;;;;;5045034;28;19951;-75
2022/11/25 14:49:52;;;;;;;;;;;;;;;;;;5045464;28;19956;-75
2022/11/25 14:52:18;;;;;;;;;;;;;;;;;;5062811;28;20334;-75
2022/11/25 14:54:44;;;;;;;;;;;;;;;;;;5037962;28;20335;-74
2022/11/25 14:57:10;;;;;;;;;;;;;;;;;;5065917;28;19955;-74
2022/11/25 14:59:37;;;;;;;;;;;;;;;;;;5079169;28;19948;-74
2022/11/25 15:02:03;;;;;;;;;;;;;;;;;;5056832;28;19963;-74
2022/11/25 15:04:29;;;;;;;;;;;;;;;;;;5034874;28;20016;-75
2022/11/25 15:06:56;;;;;;;;;;;;;;;;;;5043031;28;19955;-74
2022/11/25 15:09:22;;;;;;;;;;;;;;;;;;5048702;28;19967;-74
2022/11/25 15:11:49;;;;;;;;;;;;;;;;;;5052075;28;19971;-74
2022/11/25 15:14:15;;;;;;;;;;;;;;;;;;5067164;28;19968;-75
2022/11/25 15:16:42;;;;;;;;;;;;;;;;;;5052871;28;19952;-76
2022/11/25 15:19:08;;;;;;;;;;;;;;;;;;5019899;28;19924;-76
2022/11/25 15:21:35;;;;;;;;;;;;;;;;;;5050355;28;19956;-75
2022/11/25 15:24:01;;;;;;;;;;;;;;;;;;5066943;28;19971;-75
2022/11/25 15:26:27;;;;;;;;;;;;;;;;;;5053718;28;19956;-75
2022/11/25 15:28:54;;;;;;;;;;;;;;;;;;5052087;28;19964;-75
2022/11/25 15:31:20;;;;;;;;;;;;;;;;;;5046347;28;19971;-75
2022/11/25 15:33:46;;;;;;;;;;;;;;;;;;5054429;28;19960;-74
2022/11/25 15:36:13;;;;;;;;;;;;;;;;;;5059403;28;19940;-75
2022/11/25 15:38:42;;;;;;;;;;;;;;;;;;5075080;28;20540;-75
2022/11/25 15:41:08;;;;;;;;;;;;;;;;;;5054018;28;19963;-75
2022/11/25 15:43:35;;;;;;;;;;;;;;;;;;5068886;28;20594;-75
2022/11/25 15:46:01;;;;;;;;;;;;;;;;;;5058990;28;19948;-75
2022/11/25 15:48:27;;;;;;;;;;;;;;;;;;5073902;28;19955;-75
2022/11/25 15:50:53;;;;;;;;;;;;;;;;;;5061317;28;20023;-76
2022/11/25 15:53:19;;;;;;;;;;;;;;;;;;5042970;28;19959;-75
2022/11/25 15:55:45;;;;;;;;;;;;;;;;;;5073572;28;19960;-76
2022/11/25 15:58:12;;;;;;;;;;;;;;;;;;5036223;28;19971;-80
2022/11/25 16:00:40;;;;;;;;;;;;;;;;;;5056520;28;20357;-76
2022/11/25 16:03:06;;;;;;;;;;;;;;;;;;5047681;28;19980;-76
2022/11/25 16:05:32;;;;;;;;;;;;;;;;;;5059462;28;19956;-76
2022/11/25 16:07:59;;;;;;;;;;;;;;;;;;5058274;28;19944;-76
2022/11/25 16:10:25;;;;;;;;;;;;;;;;;;5059073;28;20549;-76
2022/11/25 16:12:51;;;;;;;;;;;;;;;;;;5075853;28;19960;-76
2022/11/25 16:15:17;;;;;;;;;;;;;;;;;;5057265;28;20416;-76
2022/11/25 16:17:43;;;;;;;;;;;;;;;;;;5056705;28;19956;-76
2022/11/25 16:20:10;;;;;;;;;;;;;;;;;;5050693;28;20389;-75
2022/11/25 16:22:36;;;;;;;;;;;;;;;;;;5053730;28;19979;-77
2022/11/25 16:25:02;;;;;;;;;;;;;;;;;;5056052;28;19955;-76
2022/11/25 16:27:28;;;;;;;;;;;;;;;;;;5053342;28;19956;-76
2022/11/25 16:29:54;;;;;;;;;;;;;;;;;;5056785;28;19960;-77
2022/11/25 16:32:21;;;;;;;;;;;;;;;;;;5055014;28;19963;-76
2022/11/25 16:34:47;;;;;;;;;;;;;;;;;;5057417;28;20019;-77
2022/11/25 16:37:13;;;;;;;;;;;;;;;;;;5047582;28;20609;-77
2022/11/25 16:39:39;;;;;;;;;;;;;;;;;;5053084;28;19952;-76
2022/11/25 16:42:05;;;;;;;;;;;;;;;;;;5051347;28;20477;-75
2022/11/25 16:44:32;;;;;;;;;;;;;;;;;;5052900;28;19944;-72
2022/11/25 16:46:58;;;;;;;;;;;;;;;;;;5046182;28;19956;-73
2022/11/25 16:49:27;;;;;;;;;;;;;;;;;;5037511;28;19959;-75
2022/11/25 16:51:53;;;;;;;;;;;;;;;;;;5058535;28;20050;-75